Time;durP1;ratioP1;P1;durP2;ratioP2;P2;SDS_P1;SDS_P2;PMS_P1;PMS_P2;Temp;Humidity;BMP_temperature;BMP_pressure;BME280_temperature;BME280_humidity;BME280_pressure;Samples;Min_cycle;Max_cycle;Signal;HPM_P1;HPM_P2
2023/05/26 00:02:52;;;;;;;17.70;14.05;;;14.00;99.90;;;;;;5068093;28;20271;-88
2023/05/26 00:10:46;;;;;;;13.23;11.90;;;13.70;99.90;;;;;;5066872;28;20666;-90
2023/05/26 00:13:35;;;;;;;14.32;12.00;;;13.60;99.90;;;;;;5066886;28;20228;-91
2023/05/26 00:25:04;;;;;;;13.02;11.70;;;13.50;99.90;;;;;;5046600;28;20236;-89
2023/05/26 00:30:19;;;;;;;12.63;11.40;;;13.30;99.90;;;;;;5067824;28;20747;-89
2023/05/26 00:32:48;;;;;;;14.35;11.35;;;13.30;99.90;;;;;;5070227;28;20837;-90
2023/05/26 00:35:17;;;;;;;14.48;12.05;;;13.20;99.90;;;;;;5068982;28;20212;-86
2023/05/26 00:40:39;;;;;;;14.55;11.52;;;13.10;99.90;;;;;;5058954;28;20254;-89
2023/05/26 00:43:29;;;;;;;15.48;13.57;;;13.20;99.90;;;;;;5059896;28;20205;-90
2023/05/26 00:45:57;;;;;;;18.55;15.68;;;13.20;99.90;;;;;;5070062;28;20274;-89
2023/05/26 00:48:27;;;;;;;15.23;13.63;;;13.40;99.90;;;;;;5066034;28;20626;-89
2023/05/26 00:56:41;;;;;;;20.48;16.58;;;13.60;99.90;;;;;;5054646;28;20678;-88
2023/05/26 01:02:11;;;;;;;17.88;12.65;;;13.70;99.90;;;;;;5065113;28;20677;-88
2023/05/26 01:07:41;;;;;;;18.27;16.13;;;13.70;99.90;;;;;;5062705;28;20229;-89
2023/05/26 01:16:12;;;;;;;12.35;10.98;;;13.70;99.90;;;;;;5064283;28;20201;-89
2023/05/26 01:38:46;;;;;;;11.77;8.98;;;13.60;99.00;;;;;;5053566;28;20247;-88
2023/05/26 01:41:27;;;;;;;11.55;8.15;;;13.70;97.90;;;;;;5067455;28;20344;-88
2023/05/26 01:55:38;;;;;;;13.52;11.43;;;13.70;96.60;;;;;;5064899;28;20217;-87
2023/05/26 02:07:09;;;;;;;14.95;9.93;;;13.50;96.30;;;;;;5068626;28;20279;-89
2023/05/26 02:09:40;;;;;;;12.75;8.02;;;13.50;96.50;;;;;;5072895;28;20201;-89
2023/05/26 02:17:37;;;;;;;11.65;8.00;;;13.40;96.40;;;;;;5055033;28;20898;-89
2023/05/26 02:22:52;;;;;;;12.05;7.40;;;13.20;96.70;;;;;;5064453;28;20220;-89
2023/05/26 02:25:20;;;;;;;11.80;8.45;;;13.20;96.70;;;;;;5063979;28;20320;-89
2023/05/26 02:27:47;;;;;;;10.93;7.60;;;13.10;97.00;;;;;;5068493;28;20629;-89
2023/05/26 02:30:34;;;;;;;9.95;8.18;;;13.00;97.00;;;;;;5067610;28;20201;-88
2023/05/26 02:33:01;;;;;;;10.90;8.52;;;12.80;97.70;;;;;;5071936;28;20212;-89
2023/05/26 02:38:10;;;;;;;11.05;8.07;;;12.60;98.20;;;;;;5061146;28;20201;-89
2023/05/26 02:40:37;;;;;;;9.38;7.78;;;12.50;98.40;;;;;;5035714;28;20196;-88
2023/05/26 02:43:07;;;;;;;10.25;7.75;;;12.40;98.60;;;;;;5047151;28;20198;-88
2023/05/26 02:45:38;;;;;;;10.85;8.45;;;12.20;98.90;;;;;;5068310;28;20209;-89
2023/05/26 02:48:05;;;;;;;10.88;8.20;;;12.30;99.50;;;;;;5064064;28;20208;-89
2023/05/26 02:50:41;;;;;;;13.32;9.18;;;12.30;99.60;;;;;;5071384;28;20197;-89
2023/05/26 02:53:08;;;;;;;12.38;8.38;;;12.20;99.40;;;;;;5044802;28;20201;-89
2023/05/26 02:55:35;;;;;;;9.82;8.77;;;12.10;99.50;;;;;;5071954;28;20544;-88
2023/05/26 02:58:03;;;;;;;10.95;8.18;;;12.10;99.90;;;;;;5051700;28;20696;-88
2023/05/26 03:00:30;;;;;;;12.65;8.82;;;12.00;99.90;;;;;;5070619;28;20707;-88
2023/05/26 03:02:56;;;;;;;11.65;9.13;;;11.90;99.90;;;;;;5070377;28;20203;-88
2023/05/26 03:05:24;;;;;;;12.27;8.52;;;12.00;99.90;;;;;;5069653;28;20205;-88
2023/05/26 03:07:52;;;;;;;9.85;8.38;;;12.10;99.90;;;;;;5052944;28;20238;-91
2023/05/26 03:10:19;;;;;;;13.05;8.75;;;12.20;99.90;;;;;;5052101;28;20605;-88
2023/05/26 03:18:16;;;;;;;11.63;8.68;;;12.00;99.90;;;;;;5068300;28;20712;-89
2023/05/26 03:20:46;;;;;;;10.10;8.38;;;11.80;99.90;;;;;;5062380;28;20193;-88
2023/05/26 03:23:17;;;;;;;11.10;8.27;;;11.80;99.90;;;;;;5054034;28;20666;-89
2023/05/26 03:25:45;;;;;;;10.25;8.85;;;11.90;99.90;;;;;;5060147;28;20222;-88
2023/05/26 03:28:11;;;;;;;11.00;8.25;;;11.90;99.90;;;;;;5050992;28;20925;-88
2023/05/26 03:30:38;;;;;;;11.07;8.55;;;11.90;99.90;;;;;;5066342;28;20202;-88
2023/05/26 03:33:06;;;;;;;10.45;8.63;;;11.90;99.90;;;;;;5049092;28;20208;-89
2023/05/26 03:35:34;;;;;;;14.95;8.68;;;11.80;99.90;;;;;;5050846;28;20240;-88
2023/05/26 03:38:01;;;;;;;14.52;8.57;;;11.70;99.90;;;;;;5067240;28;20400;-89
2023/05/26 03:43:26;;;;;;;13.65;8.73;;;11.80;99.90;;;;;;5062831;28;20298;-89
2023/05/26 03:45:54;;;;;;;13.15;8.45;;;12.00;99.90;;;;;;5046180;28;20213;-89
2023/05/26 03:48:21;;;;;;;10.85;7.85;;;12.00;99.90;;;;;;5051064;28;20224;-89
2023/05/26 03:50:48;;;;;;;11.38;7.93;;;12.00;99.90;;;;;;5045046;28;20214;-88
2023/05/26 03:58:38;;;;;;;10.00;7.85;;;12.40;99.90;;;;;;5051760;28;20608;-90
2023/05/26 04:01:06;;;;;;;11.00;8.40;;;12.40;99.30;;;;;;5063829;28;20201;-88
2023/05/26 04:03:33;;;;;;;10.23;7.78;;;12.40;99.10;;;;;;5068533;28;20290;-89
2023/05/26 04:06:00;;;;;;;10.55;7.90;;;12.40;98.90;;;;;;5070062;28;20567;-88
2023/05/26 04:08:27;;;;;;;9.63;8.15;;;12.50;98.90;;;;;;5045509;28;20206;-89
2023/05/26 04:10:54;;;;;;;11.32;7.78;;;12.50;98.90;;;;;;5030138;28;20206;-88
2023/05/26 04:13:22;;;;;;;13.48;7.78;;;12.50;98.60;;;;;;5065599;28;20204;-86
2023/05/26 04:15:50;;;;;;;11.10;7.72;;;12.60;98.50;;;;;;5051243;28;20197;-89
2023/05/26 04:18:17;;;;;;;14.25;8.80;;;12.50;98.40;;;;;;5039745;28;20220;-86
2023/05/26 04:20:44;;;;;;;11.50;7.97;;;12.60;98.10;;;;;;5043074;28;20196;-88
2023/05/26 04:23:11;;;;;;;12.30;8.40;;;12.60;97.80;;;;;;5049976;28;20607;-89
2023/05/26 04:25:40;;;;;;;11.18;7.53;;;12.70;97.40;;;;;;5066867;28;20201;-88
2023/05/26 04:28:07;;;;;;;11.85;7.85;;;12.80;96.40;;;;;;5067966;28;20194;-89
2023/05/26 04:30:39;;;;;;;11.43;7.68;;;12.80;96.10;;;;;;5032392;28;20197;-89
2023/05/26 04:33:07;;;;;;;11.32;7.68;;;12.80;95.70;;;;;;5051519;28;20258;-88
2023/05/26 04:35:55;;;;;;;9.90;7.47;;;12.90;95.40;;;;;;5047004;28;20190;-89
2023/05/26 04:41:27;;;;;;;10.25;7.63;;;13.00;94.80;;;;;;5060061;28;20197;-89
2023/05/26 04:43:54;;;;;;;12.18;8.02;;;13.10;94.60;;;;;;5046126;28;21595;-89
2023/05/26 04:56:01;;;;;;;12.60;7.93;;;13.40;93.60;;;;;;5051724;28;20611;-90
2023/05/26 05:01:09;;;;;;;10.55;7.85;;;13.60;93.70;;;;;;5061500;28;20280;-89
2023/05/26 05:03:38;;;;;;;10.93;8.30;;;13.70;93.90;;;;;;5051603;28;20201;-89
2023/05/26 05:06:06;;;;;;;11.95;8.25;;;13.90;92.70;;;;;;5066975;28;20287;-91
2023/05/26 05:08:33;;;;;;;15.73;8.77;;;14.10;92.30;;;;;;5033952;28;20193;-90
2023/05/26 05:11:00;;;;;;;12.52;8.07;;;14.30;91.40;;;;;;5064755;28;20348;-90
2023/05/26 05:13:27;;;;;;;11.45;8.07;;;14.40;91.10;;;;;;5063026;28;20553;-90
2023/05/26 05:15:55;;;;;;;19.05;8.18;;;14.40;90.90;;;;;;5068508;28;20291;-89
2023/05/26 05:18:22;;;;;;;16.05;8.77;;;14.30;91.10;;;;;;5047709;28;20252;-89
2023/05/26 05:20:50;;;;;;;12.68;8.00;;;14.40;91.30;;;;;;5066951;28;20649;-89
2023/05/26 05:23:18;;;;;;;16.05;8.80;;;14.50;91.30;;;;;;5061897;28;21424;-91
2023/05/26 05:25:45;;;;;;;10.07;7.97;;;14.70;90.60;;;;;;5049028;28;20288;-90
2023/05/26 05:28:12;;;;;;;13.70;8.10;;;15.20;88.00;;;;;;5068226;28;20231;-86
2023/05/26 05:30:39;;;;;;;12.93;8.15;;;15.30;85.90;;;;;;5063728;28;20193;-89
2023/05/26 05:33:07;;;;;;;21.20;11.70;;;15.30;85.60;;;;;;5045987;28;20436;-89
2023/05/26 05:35:34;;;;;;;26.77;13.45;;;15.60;84.90;;;;;;5066901;28;21019;-89
2023/05/26 05:40:43;;;;;;;12.63;7.95;;;16.70;78.50;;;;;;5045997;28;20205;-89
2023/05/26 05:43:12;;;;;;;12.50;8.30;;;17.00;69.80;;;;;;5070006;28;20201;-90
2023/05/26 05:45:41;;;;;;;15.85;9.38;;;17.20;67.10;;;;;;5054209;28;20193;-89
2023/05/26 05:48:10;;;;;;;18.95;8.80;;;17.10;69.90;;;;;;5072391;28;20213;-90
2023/05/26 05:50:37;;;;;;;11.88;8.48;;;17.20;69.80;;;;;;5067354;28;20193;-89
2023/05/26 05:55:47;;;;;;;12.98;8.73;;;17.20;64.70;;;;;;5062829;28;20621;-91
2023/05/26 05:58:14;;;;;;;12.70;8.48;;;16.70;73.20;;;;;;5049310;28;20208;-89
2023/05/26 06:00:41;;;;;;;12.27;8.80;;;16.30;78.20;;;;;;5045693;28;20189;-90
2023/05/26 06:03:09;;;;;;;13.18;8.73;;;16.20;78.10;;;;;;5065529;28;20205;-89
2023/05/26 06:16:25;;;;;;;10.57;8.27;;;15.80;80.80;;;;;;5038676;28;20204;-88
2023/05/26 06:21:41;;;;;;;11.52;9.50;;;15.80;83.10;;;;;;5061696;28;20230;-92
2023/05/26 06:24:10;;;;;;;15.88;9.00;;;16.00;83.10;;;;;;5068852;28;20648;-90
2023/05/26 06:26:38;;;;;;;11.15;8.70;;;15.90;82.20;;;;;;5073226;28;20240;-90
2023/05/26 06:29:04;;;;;;;14.82;9.57;;;16.00;83.40;;;;;;5054854;28;20197;-90
2023/05/26 06:31:32;;;;;;;16.27;9.45;;;16.10;81.90;;;;;;5056764;28;20742;-90
2023/05/26 06:34:00;;;;;;;12.82;9.50;;;16.20;81.10;;;;;;5073254;28;20645;-86
2023/05/26 06:39:07;;;;;;;14.68;9.35;;;16.30;81.30;;;;;;5073417;28;20197;-89
2023/05/26 06:41:36;;;;;;;18.35;10.65;;;16.30;82.50;;;;;;5072090;28;20286;-89
2023/05/26 06:44:03;;;;;;;15.23;9.85;;;16.40;83.90;;;;;;5050718;28;20202;-90
2023/05/26 06:46:30;;;;;;;13.48;9.70;;;16.40;83.20;;;;;;5057925;28;20202;-87
2023/05/26 06:48:57;;;;;;;12.38;9.55;;;16.50;82.20;;;;;;5076220;28;20219;-89
2023/05/26 06:51:24;;;;;;;17.40;10.18;;;16.60;82.40;;;;;;5075751;28;20205;-90
2023/05/26 06:53:52;;;;;;;12.82;9.98;;;16.70;81.10;;;;;;5073142;28;20200;-90
2023/05/26 06:56:18;;;;;;;11.48;10.02;;;16.70;82.20;;;;;;5075482;28;20205;-89
2023/05/26 06:58:47;;;;;;;13.48;9.60;;;16.70;84.40;;;;;;5065907;28;20198;-86
2023/05/26 07:01:15;;;;;;;14.20;10.38;;;16.90;81.80;;;;;;5056618;28;20202;-89
2023/05/26 07:03:41;;;;;;;13.68;9.90;;;16.80;81.60;;;;;;5062487;28;20202;-90
2023/05/26 07:06:09;;;;;;;16.15;10.63;;;16.90;81.40;;;;;;5056341;28;20193;-90
2023/05/26 07:08:36;;;;;;;16.33;11.10;;;17.10;80.60;;;;;;5037915;28;20221;-88
2023/05/26 07:11:03;;;;;;;15.57;10.30;;;17.30;82.00;;;;;;5041785;28;20198;-89
2023/05/26 07:13:30;;;;;;;18.15;11.27;;;17.30;81.60;;;;;;5048263;28;20198;-88
2023/05/26 07:15:58;;;;;;;15.18;10.65;;;17.50;80.10;;;;;;5067540;28;20193;-84
2023/05/26 07:18:25;;;;;;;15.52;10.70;;;17.50;79.90;;;;;;5032865;28;20233;-86
2023/05/26 07:20:53;;;;;;;18.35;10.82;;;17.60;80.40;;;;;;5049082;28;20684;-85
2023/05/26 07:23:19;;;;;;;11.95;10.32;;;17.80;79.30;;;;;;5068534;28;20204;-88
2023/05/26 07:25:47;;;;;;;16.80;10.40;;;17.90;78.40;;;;;;5065229;28;20657;-85
2023/05/26 07:28:14;;;;;;;16.33;10.93;;;18.00;78.60;;;;;;5032211;28;20217;-91
2023/05/26 07:37:37;;;;;;;11.55;10.30;;;18.20;79.50;;;;;;5031021;28;20207;-90
2023/05/26 07:40:05;;;;;;;17.95;10.60;;;18.30;76.80;;;;;;5008984;28;20625;-88
2023/05/26 07:42:32;;;;;;;12.60;10.38;;;18.30;78.10;;;;;;5027140;28;20216;-90
2023/05/26 07:44:59;;;;;;;13.95;9.68;;;18.50;76.80;;;;;;5068192;28;20628;-91
2023/05/26 07:47:29;;;;;;;11.65;9.38;;;18.50;75.40;;;;;;5070950;28;20217;-90
2023/05/26 07:50:01;;;;;;;12.10;10.18;;;18.60;71.00;;;;;;5065924;28;20676;-90
2023/05/26 07:52:28;;;;;;;12.77;10.10;;;18.70;70.20;;;;;;5072327;28;20189;-90
2023/05/26 07:55:23;;;;;;;12.57;9.77;;;18.80;70.40;;;;;;5057662;28;20192;-91
2023/05/26 07:57:50;;;;;;;13.93;10.13;;;18.90;71.40;;;;;;5072357;28;20204;-89
2023/05/26 08:00:18;;;;;;;14.93;10.73;;;19.00;69.80;;;;;;5052257;28;20200;-92
2023/05/26 08:02:45;;;;;;;14.73;9.85;;;19.20;75.10;;;;;;5068814;28;20292;-89
2023/05/26 08:05:13;;;;;;;14.50;10.73;;;19.40;63.40;;;;;;5070859;28;20221;-89
2023/05/26 08:07:40;;;;;;;12.90;9.63;;;19.40;70.60;;;;;;5066462;28;20224;-91
2023/05/26 08:10:11;;;;;;;12.98;9.73;;;19.40;65.40;;;;;;5050389;28;20204;-90
2023/05/26 08:12:39;;;;;;;12.00;9.63;;;19.50;60.10;;;;;;5059251;28;20201;-90
2023/05/26 08:15:13;;;;;;;15.15;9.43;;;19.60;61.30;;;;;;5044329;28;20201;-88
2023/05/26 08:17:40;;;;;;;13.95;9.55;;;19.70;58.30;;;;;;5067248;28;20277;-90
2023/05/26 08:20:08;;;;;;;18.05;13.77;;;20.20;56.20;;;;;;5041662;28;20240;-89
2023/05/26 08:22:37;;;;;;;14.32;9.73;;;21.00;52.00;;;;;;5070006;28;20197;-88
2023/05/26 08:25:05;;;;;;;13.18;8.68;;;22.40;46.10;;;;;;5064434;28;20197;-89
2023/05/26 08:27:32;;;;;;;13.93;9.75;;;23.80;35.20;;;;;;5044234;28;20236;-84
2023/05/26 08:29:59;;;;;;;15.98;10.75;;;24.60;28.00;;;;;;5068607;28;20200;-89
2023/05/26 08:32:26;;;;;;;11.57;7.93;;;24.80;26.10;;;;;;5054445;28;20201;-89
2023/05/26 08:34:53;;;;;;;11.77;8.50;;;24.50;26.10;;;;;;5051603;28;20216;-85
2023/05/26 08:37:22;;;;;;;9.80;8.63;;;24.00;26.70;;;;;;5066912;28;20630;-86
2023/05/26 08:39:50;;;;;;;13.52;9.10;;;23.40;28.90;;;;;;5065886;28;20221;-89
2023/05/26 08:42:20;;;;;;;10.23;9.13;;;23.50;27.90;;;;;;5065244;28;20201;-87
2023/05/26 08:44:47;;;;;;;11.85;9.20;;;23.50;28.30;;;;;;5072102;28;20196;-86
2023/05/26 08:47:14;;;;;;;11.02;9.60;;;24.60;27.40;;;;;;5065732;28;20227;-85
2023/05/26 08:49:47;;;;;;;13.18;8.98;;;25.80;22.60;;;;;;5068976;28;20204;-85
2023/05/26 08:52:16;;;;;;;10.20;9.07;;;26.50;20.60;;;;;;5065533;28;20189;-86
2023/05/26 08:54:44;;;;;;;9.20;8.30;;;27.20;18.40;;;;;;5065908;28;20249;-88
2023/05/26 08:57:13;;;;;;;12.18;9.40;;;27.70;17.00;;;;;;5062272;28;20236;-88
2023/05/26 08:59:41;;;;;;;9.02;7.95;;;29.20;16.20;;;;;;5067291;28;20204;-86
2023/05/26 09:02:09;;;;;;;11.07;9.20;;;30.20;14.10;;;;;;5065755;28;20209;-85
2023/05/26 09:04:36;;;;;;;7.70;6.85;;;30.30;12.60;;;;;;5061851;28;20207;-86
2023/05/26 09:07:06;;;;;;;11.55;9.13;;;30.40;13.70;;;;;;5066694;28;20200;-87
2023/05/26 09:09:33;;;;;;;11.15;9.40;;;31.20;10.30;;;;;;5062713;28;20209;-88
2023/05/26 09:12:00;;;;;;;11.55;9.90;;;30.50;12.00;;;;;;5061024;28;20201;-86
2023/05/26 09:14:28;;;;;;;14.35;12.63;;;30.00;12.80;;;;;;5063523;28;20204;-86
2023/05/26 09:17:00;;;;;;;10.88;8.35;;;29.70;13.00;;;;;;5046229;28;20200;-87
2023/05/26 09:19:27;;;;;;;11.05;9.02;;;30.00;13.10;;;;;;5060021;28;20204;-87
2023/05/26 09:21:55;;;;;;;9.27;8.20;;;29.50;13.30;;;;;;5047792;28;20199;-87
2023/05/26 09:24:24;;;;;;;14.18;8.48;;;29.00;13.60;;;;;;5053854;28;20204;-86
2023/05/26 09:26:51;;;;;;;9.80;8.80;;;29.00;15.00;;;;;;5062824;28;20198;-83
2023/05/26 09:29:18;;;;;;;8.35;7.45;;;29.40;13.50;;;;;;5064011;28;20220;-85
2023/05/26 09:31:47;;;;;;;9.95;8.70;;;29.30;13.20;;;;;;5068007;28;20204;-86
2023/05/26 09:34:17;;;;;;;13.88;9.30;;;30.90;11.50;;;;;;5065350;28;20197;-85
2023/05/26 09:36:44;;;;;;;10.13;8.18;;;30.40;12.20;;;;;;5063902;28;20200;-87
2023/05/26 09:39:13;;;;;;;10.13;8.45;;;29.80;12.50;;;;;;5065849;28;20212;-86
2023/05/26 09:41:42;;;;;;;10.52;7.75;;;29.00;14.00;;;;;;5063860;28;20791;-85
2023/05/26 09:44:13;;;;;;;10.02;8.35;;;28.00;14.50;;;;;;5065898;28;20566;-84
2023/05/26 09:46:40;;;;;;;12.15;7.68;;;27.00;15.10;;;;;;5064210;28;20196;-83
2023/05/26 09:49:14;;;;;;;10.57;7.00;;;26.30;17.10;;;;;;5056749;28;20213;-85
2023/05/26 09:51:42;;;;;;;9.80;7.65;;;25.50;17.20;;;;;;5057663;28;20795;-87
2023/05/26 09:54:10;;;;;;;9.52;7.45;;;24.80;18.80;;;;;;5064925;28;20200;-90
2023/05/26 09:56:45;;;;;;;12.38;7.93;;;24.80;20.70;;;;;;5065159;28;20200;-84
2023/05/26 09:59:16;;;;;;;8.88;7.32;;;25.50;20.90;;;;;;5067236;28;20192;-84
2023/05/26 10:01:44;;;;;;;10.63;8.63;;;26.80;17.10;;;;;;5057484;28;21047;-86
2023/05/26 10:04:16;;;;;;;9.82;7.22;;;28.10;15.70;;;;;;5067491;28;20193;-85
2023/05/26 10:06:44;;;;;;;12.15;8.38;;;28.40;15.90;;;;;;5062171;28;20452;-85
2023/05/26 10:09:12;;;;;;;10.27;7.72;;;29.90;12.60;;;;;;5063202;28;20688;-88
2023/05/26 10:11:44;;;;;;;12.45;9.00;;;29.70;12.60;;;;;;5066885;28;21381;-87
2023/05/26 10:14:12;;;;;;;11.35;8.73;;;29.30;13.50;;;;;;5065094;28;20239;-89
2023/05/26 10:16:39;;;;;;;10.52;8.40;;;28.70;16.00;;;;;;5065267;28;20929;-89
2023/05/26 10:19:07;;;;;;;14.02;8.65;;;28.30;15.80;;;;;;5065006;28;20236;-89
2023/05/26 10:21:45;;;;;;;8.13;7.07;;;28.10;15.70;;;;;;5029094;28;20255;-89
2023/05/26 10:24:18;;;;;;;10.57;7.95;;;28.80;12.90;;;;;;5063081;28;20642;-87
2023/05/26 10:26:55;;;;;;;12.18;9.00;;;29.40;12.40;;;;;;5063870;28;20204;-89
2023/05/26 10:29:29;;;;;;;8.77;6.80;;;29.60;11.70;;;;;;5063699;28;20287;-83
2023/05/26 10:31:56;;;;;;;9.63;7.53;;;29.00;12.50;;;;;;5048798;28;20192;-87
2023/05/26 10:34:43;;;;;;;8.98;6.15;;;29.00;11.20;;;;;;5072654;28;20273;-84
2023/05/26 10:37:18;;;;;;;7.18;5.70;;;29.00;12.70;;;;;;5067120;28;20250;-87
2023/05/26 10:39:45;;;;;;;11.15;6.53;;;30.40;7.60;;;;;;5069270;28;20193;-88
2023/05/26 10:42:19;;;;;;;9.93;7.72;;;30.10;9.90;;;;;;5063205;28;20665;-85
2023/05/26 10:44:48;;;;;;;12.02;7.03;;;29.70;11.90;;;;;;5065092;28;20606;-85
2023/05/26 10:47:16;;;;;;;13.35;7.22;;;29.50;11.80;;;;;;5069142;28;20205;-86
2023/05/26 10:49:53;;;;;;;9.60;6.57;;;29.10;13.60;;;;;;5067949;28;20224;-86
2023/05/26 10:52:21;;;;;;;9.43;6.30;;;28.70;13.40;;;;;;5062500;28;20196;-86
2023/05/26 10:54:51;;;;;;;7.88;6.38;;;29.30;13.90;;;;;;5064603;28;20197;-91
2023/05/26 10:57:36;;;;;;;9.88;6.00;;;29.30;12.70;;;;;;5071787;28;20189;-88
2023/05/26 11:00:21;;;;;;;9.57;6.93;;;28.90;11.20;;;;;;5045118;28;20309;-85
2023/05/26 11:02:48;;;;;;;10.18;7.32;;;28.30;13.50;;;;;;5069189;28;20220;-88
2023/05/26 11:05:31;;;;;;;8.27;6.00;;;27.60;14.20;;;;;;5030247;28;20202;-87
2023/05/26 11:08:00;;;;;;;10.52;6.68;;;27.40;15.30;;;;;;5070521;28;20221;-83
2023/05/26 11:10:27;;;;;;;9.88;6.65;;;27.40;14.60;;;;;;5069985;28;20201;-86
2023/05/26 11:12:57;;;;;;;8.90;7.13;;;26.90;15.10;;;;;;5069282;28;20216;-88
2023/05/26 11:15:28;;;;;;;10.38;7.18;;;26.50;14.90;;;;;;5070091;28;20197;-89
2023/05/26 11:17:57;;;;;;;11.35;7.90;;;26.60;14.90;;;;;;5069771;28;20228;-88
2023/05/26 11:20:25;;;;;;;8.10;6.82;;;26.80;15.10;;;;;;5072610;28;20205;-89
2023/05/26 11:22:52;;;;;;;11.63;7.50;;;26.50;16.10;;;;;;5050559;28;20220;-89
2023/05/26 11:25:21;;;;;;;11.10;6.85;;;26.40;15.30;;;;;;5068961;28;20197;-87
2023/05/26 11:27:49;;;;;;;13.63;7.00;;;26.50;14.90;;;;;;5048606;28;20221;-90
2023/05/26 11:30:16;;;;;;;11.63;7.07;;;26.40;16.20;;;;;;5080670;28;20200;-88
2023/05/26 11:32:46;;;;;;;9.32;7.25;;;26.40;14.90;;;;;;5076061;28;20201;-87
2023/05/26 11:35:36;;;;;;;14.02;7.50;;;26.20;18.10;;;;;;5070740;28;20218;-86
2023/05/26 11:38:04;;;;;;;9.30;7.05;;;26.00;16.40;;;;;;5059009;28;20207;-90
2023/05/26 11:40:33;;;;;;;10.25;6.53;;;25.60;17.60;;;;;;5060131;28;20189;-90
2023/05/26 11:43:00;;;;;;;9.85;6.95;;;25.30;17.70;;;;;;5065546;28;20197;-90
2023/05/26 11:45:27;;;;;;;9.68;7.22;;;25.30;18.80;;;;;;5049316;28;20204;-89
2023/05/26 11:47:55;;;;;;;12.48;6.88;;;25.50;16.30;;;;;;5049932;28;20209;-89
2023/05/26 11:50:21;;;;;;;10.82;6.95;;;25.70;17.40;;;;;;5056490;28;20656;-87
2023/05/26 11:52:50;;;;;;;11.55;6.80;;;25.80;16.40;;;;;;5056840;28;20204;-90
2023/05/26 11:55:18;;;;;;;9.70;7.00;;;25.90;19.10;;;;;;5061573;28;20193;-86
2023/05/26 11:57:47;;;;;;;10.00;7.18;;;26.00;16.50;;;;;;5068491;28;20204;-87
2023/05/26 12:00:17;;;;;;;9.57;6.78;;;26.00;16.30;;;;;;5060799;28;20197;-88
2023/05/26 12:02:45;;;;;;;11.05;7.50;;;25.80;16.70;;;;;;5039533;28;20580;-87
2023/05/26 12:05:20;;;;;;;10.18;7.00;;;25.40;17.30;;;;;;5042828;28;20205;-88
2023/05/26 12:08:02;;;;;;;9.38;7.03;;;25.20;17.80;;;;;;5076262;28;20201;-91
2023/05/26 12:10:30;;;;;;;10.30;6.50;;;25.00;18.30;;;;;;5051497;28;20204;-90
2023/05/26 12:12:58;;;;;;;9.80;6.32;;;25.00;18.30;;;;;;5053663;28;20200;-88
2023/05/26 12:15:26;;;;;;;10.43;6.63;;;25.00;18.20;;;;;;5048119;28;20207;-87
2023/05/26 12:17:54;;;;;;;14.07;6.80;;;24.70;19.60;;;;;;5074104;28;20213;-90
2023/05/26 12:20:22;;;;;;;9.70;6.75;;;24.30;20.30;;;;;;5051454;28;20211;-88
2023/05/26 12:22:51;;;;;;;10.10;6.63;;;24.10;19.50;;;;;;5071258;28;20193;-88
2023/05/26 12:25:24;;;;;;;11.52;6.30;;;23.80;20.00;;;;;;5069870;28;20283;-87
2023/05/26 12:27:51;;;;;;;7.85;6.07;;;23.70;20.00;;;;;;5066032;28;20212;-87
2023/05/26 12:30:22;;;;;;;10.35;6.18;;;23.60;20.70;;;;;;5063704;28;20229;-88
2023/05/26 12:32:50;;;;;;;10.23;6.00;;;23.60;20.00;;;;;;5049567;28;20259;-89
2023/05/26 12:35:17;;;;;;;10.77;5.82;;;23.80;20.30;;;;;;5065770;28;20193;-87
2023/05/26 12:37:44;;;;;;;11.63;6.88;;;24.00;19.70;;;;;;5025780;28;20201;-88
2023/05/26 12:40:12;;;;;;;8.73;6.18;;;24.00;20.00;;;;;;5042468;28;20252;-88
2023/05/26 12:42:40;;;;;;;10.80;6.25;;;24.00;19.40;;;;;;5052859;28;20197;-89
2023/05/26 12:45:08;;;;;;;8.40;6.00;;;24.20;20.70;;;;;;5066228;28;20193;-89
2023/05/26 12:47:38;;;;;;;9.30;6.30;;;24.60;18.10;;;;;;5059032;28;20247;-88
2023/05/26 12:50:06;;;;;;;8.40;6.70;;;24.60;17.80;;;;;;5063600;28;20213;-90
2023/05/26 12:52:32;;;;;;;9.60;6.13;;;24.80;17.50;;;;;;5044707;28;20204;-88
2023/05/26 12:54:59;;;;;;;7.93;5.47;;;24.90;18.90;;;;;;5067277;28;20230;-88
2023/05/26 12:57:26;;;;;;;8.90;5.88;;;25.10;17.40;;;;;;5066113;28;20254;-88
2023/05/26 12:59:53;;;;;;;11.20;6.30;;;25.00;16.90;;;;;;5050266;28;20254;-86
2023/05/26 13:02:21;;;;;;;10.75;5.47;;;24.70;17.90;;;;;;5070119;28;20204;-86
2023/05/26 13:04:49;;;;;;;7.63;5.25;;;24.60;18.80;;;;;;5068173;28;20204;-87
2023/05/26 13:07:16;;;;;;;7.95;5.57;;;24.80;20.30;;;;;;5068064;28;20212;-85
2023/05/26 13:09:43;;;;;;;6.00;5.40;;;25.00;17.90;;;;;;5065149;28;20224;-84
2023/05/26 13:12:12;;;;;;;7.38;5.20;;;25.00;17.70;;;;;;5062341;28;20288;-85
2023/05/26 13:14:39;;;;;;;8.75;5.63;;;24.80;18.40;;;;;;5063375;28;20242;-87
2023/05/26 13:17:06;;;;;;;7.78;5.80;;;24.50;19.30;;;;;;5047760;28;20202;-87
2023/05/26 13:19:33;;;;;;;10.30;5.70;;;24.30;18.30;;;;;;5049299;28;20209;-86
2023/05/26 13:22:02;;;;;;;8.18;6.40;;;23.90;18.60;;;;;;5062976;28;20205;-87
2023/05/26 13:24:29;;;;;;;9.05;6.00;;;23.80;19.20;;;;;;5062302;28;20201;-84
2023/05/26 13:26:56;;;;;;;9.45;6.18;;;23.70;20.00;;;;;;5067188;28;20407;-81
2023/05/26 13:29:23;;;;;;;9.73;5.78;;;23.60;19.50;;;;;;5068103;28;20240;-81
2023/05/26 13:31:50;;;;;;;7.78;6.00;;;23.60;19.90;;;;;;5068594;28;20532;-86
2023/05/26 13:34:16;;;;;;;11.07;5.72;;;23.50;20.00;;;;;;5063922;28;20194;-87
2023/05/26 13:36:45;;;;;;;8.20;5.53;;;23.50;19.70;;;;;;5052113;28;20250;-86
2023/05/26 13:39:14;;;;;;;8.40;5.72;;;23.60;19.60;;;;;;5048116;28;20224;-88
2023/05/26 13:41:41;;;;;;;7.90;5.90;;;23.70;19.40;;;;;;5066042;28;20198;-86
2023/05/26 13:44:08;;;;;;;7.78;6.13;;;23.70;18.80;;;;;;5047713;28;20201;-81
2023/05/26 13:46:35;;;;;;;8.25;5.75;;;23.90;19.00;;;;;;5064407;28;20217;-84
2023/05/26 13:49:04;;;;;;;11.20;6.10;;;24.00;19.30;;;;;;5047862;28;20346;-87
2023/05/26 13:51:31;;;;;;;6.47;5.35;;;24.10;19.20;;;;;;5068431;28;20193;-87
2023/05/26 13:53:58;;;;;;;9.70;6.13;;;24.10;19.00;;;;;;5063096;28;20190;-85
2023/05/26 13:56:28;;;;;;;7.68;5.72;;;23.90;19.00;;;;;;5049335;28;20267;-87
2023/05/26 13:58:55;;;;;;;9.52;6.28;;;23.90;18.90;;;;;;5064330;28;20269;-87
2023/05/26 14:01:23;;;;;;;8.40;5.35;;;23.80;18.80;;;;;;5046895;28;20204;-91
2023/05/26 14:03:50;;;;;;;12.30;6.15;;;23.80;19.30;;;;;;5069618;28;20223;-85
2023/05/26 14:06:17;;;;;;;10.65;6.03;;;24.00;18.70;;;;;;5052383;28;20193;-85
2023/05/26 14:08:44;;;;;;;8.07;5.90;;;23.70;19.50;;;;;;5067977;28;20198;-84
2023/05/26 14:11:11;;;;;;;10.20;6.00;;;23.50;20.10;;;;;;5067773;28;20536;-88
2023/05/26 14:13:40;;;;;;;11.40;6.35;;;23.20;21.00;;;;;;5066943;28;20829;-82
2023/05/26 14:16:07;;;;;;;13.57;6.68;;;22.80;21.90;;;;;;5068542;28;20201;-87
2023/05/26 14:18:34;;;;;;;7.88;5.85;;;22.60;21.20;;;;;;5071696;28;20267;-87
2023/05/26 14:21:01;;;;;;;12.07;6.45;;;22.50;22.30;;;;;;5070812;28;20202;-89
2023/05/26 14:23:28;;;;;;;7.18;6.00;;;22.50;22.20;;;;;;5046804;28;20217;-86
2023/05/26 14:25:55;;;;;;;10.32;6.22;;;22.70;21.90;;;;;;5048320;28;20202;-87
2023/05/26 14:28:22;;;;;;;7.88;5.85;;;22.80;22.70;;;;;;5072053;28;20201;-87
2023/05/26 14:30:51;;;;;;;10.50;6.03;;;23.00;21.40;;;;;;5048302;28;20213;-87
2023/05/26 14:33:18;;;;;;;10.32;5.95;;;22.90;22.00;;;;;;5071427;28;20299;-84
2023/05/26 14:35:45;;;;;;;7.25;6.45;;;23.00;20.90;;;;;;5065555;28;20727;-84
2023/05/26 14:38:12;;;;;;;7.95;5.90;;;22.90;21.20;;;;;;5063916;28;20204;-88
2023/05/26 14:40:39;;;;;;;11.30;6.50;;;22.70;21.80;;;;;;5067212;28;21322;-90
2023/05/26 14:43:07;;;;;;;10.95;6.60;;;22.40;21.70;;;;;;5052491;28;20197;-88
2023/05/26 14:45:34;;;;;;;9.25;5.97;;;22.30;22.70;;;;;;5045914;28;20264;-87
2023/05/26 14:48:02;;;;;;;8.60;5.97;;;22.20;22.90;;;;;;5070439;28;20239;-91
2023/05/26 14:50:29;;;;;;;10.27;6.38;;;22.10;23.20;;;;;;5068552;28;20762;-88
2023/05/26 14:52:57;;;;;;;15.27;6.05;;;22.30;22.80;;;;;;5068569;28;20808;-88
2023/05/26 14:55:25;;;;;;;11.85;6.15;;;22.50;22.40;;;;;;5052609;28;20205;-91
2023/05/26 14:57:52;;;;;;;8.75;6.72;;;22.80;23.40;;;;;;5066571;28;20896;-88
2023/05/26 15:00:19;;;;;;;8.32;5.53;;;22.80;21.60;;;;;;5066412;28;20194;-89
2023/05/26 15:02:46;;;;;;;8.60;5.97;;;22.90;22.00;;;;;;5075926;28;20201;-90
2023/05/26 15:06:11;;;;;;;14.45;6.35;;;22.90;21.80;;;;;;5041900;28;20197;-87
2023/05/26 15:09:15;;;;;;;7.53;6.00;;;22.90;21.00;;;;;;5056210;28;20197;-88
2023/05/26 15:15:02;;;;;;;10.20;6.20;;;22.50;21.50;;;;;;5074628;28;20200;-85
2023/05/26 15:20:05;;;;;;;10.35;6.68;;;22.60;22.40;;;;;;5726354;22;20233;-90
2023/05/26 15:22:49;;;;;;;8.32;5.97;;;22.50;22.20;;;;;;5056046;28;20201;-91